createdAt,value
2019-03-21T00:01:02.662Z,83.20
2019-03-21T00:03:32.100Z,79.57
2019-03-21T00:06:01.681Z,69.73
2019-03-21T00:08:31.094Z,73.33
2019-03-21T00:11:19.555Z,78.07
2019-03-21T00:13:49.556Z,83.83
2019-03-21T00:16:18.991Z,75.53
2019-03-21T00:18:48.424Z,89.17
2019-03-21T00:21:18.174Z,87.07
2019-03-21T00:23:47.609Z,91.60
2019-03-21T00:26:17.030Z,79.27
2019-03-21T00:28:46.440Z,87.80
2019-03-21T00:31:15.884Z,79.03
2019-03-21T00:33:45.732Z,88.60
2019-03-21T00:36:15.180Z,72.30
2019-03-21T00:38:44.609Z,75.73
2019-03-21T00:41:14.036Z,80.43
2019-03-21T00:43:43.492Z,76.37
2019-03-21T00:46:12.972Z,82.40
2019-03-21T00:48:42.453Z,79.23
2019-03-21T00:51:11.952Z,72.80
2019-03-21T00:53:41.390Z,85.93
2019-03-21T00:56:10.841Z,80.70
2019-03-21T00:58:40.265Z,73.27
2019-03-21T01:01:09.769Z,72.63
2019-03-21T01:03:39.229Z,87.07
2019-03-21T01:06:08.649Z,84.50
2019-03-21T01:08:38.344Z,77.93
2019-03-21T01:11:07.767Z,80.27
2019-03-21T01:13:37.225Z,92.47
2019-03-21T01:16:06.636Z,82.87
2019-03-21T01:18:36.513Z,80.30
2019-03-21T01:21:06.166Z,83.97
2019-03-21T01:23:35.639Z,79.40
2019-03-21T01:26:05.537Z,79.97
2019-03-21T01:28:34.988Z,72.90
2019-03-21T01:31:04.483Z,87.03
2019-03-21T01:33:34.176Z,81.23
2019-03-21T01:36:03.709Z,78.53
2019-03-21T01:38:33.169Z,80.10
2019-03-21T01:41:02.946Z,81.90
2019-03-21T01:43:32.360Z,78.90
2019-03-21T01:46:01.793Z,82.07
2019-03-21T01:48:31.212Z,74.13
2019-03-21T01:51:00.743Z,70.90
2019-03-21T01:53:30.155Z,77.13
2019-03-21T01:55:59.601Z,77.60
2019-03-21T01:58:29.010Z,79.13
2019-03-21T02:00:58.678Z,76.80
2019-03-21T02:03:28.092Z,72.60
2019-03-21T02:05:57.520Z,69.90
2019-03-21T02:08:27.249Z,76.83
2019-03-21T02:10:56.680Z,80.80
2019-03-21T02:13:26.115Z,74.33
2019-03-21T02:15:55.563Z,72.77
2019-03-21T02:18:25.084Z,70.97
2019-03-21T02:20:54.517Z,80.10
2019-03-21T02:23:24.136Z,77.53
2019-03-21T02:25:53.599Z,69.47
2019-03-21T02:28:23.024Z,73.90
2019-03-21T02:30:52.520Z,80.03
2019-03-21T02:33:23.591Z,79.27
2019-03-21T02:35:53.111Z,73.40
2019-03-21T02:38:22.836Z,73.37
2019-03-21T02:40:52.398Z,73.20
2019-03-21T02:43:21.828Z,68.83
2019-03-21T02:45:51.254Z,81.90
2019-03-21T02:48:20.760Z,75.37
2019-03-21T02:50:50.188Z,64.40
2019-03-21T02:53:19.628Z,79.33
2019-03-21T02:55:49.055Z,70.53
2019-03-21T02:58:18.597Z,68.17
2019-03-21T03:04:18.580Z,66.83
2019-03-21T03:06:48.015Z,64.87
2019-03-21T03:09:17.462Z,76.67
2019-03-21T03:11:46.880Z,72.47
2019-03-21T03:14:16.351Z,65.07
2019-03-21T03:16:46.060Z,74.87
2019-03-21T03:19:15.545Z,72.53
2019-03-21T03:21:44.985Z,68.63
2019-03-21T03:24:14.404Z,68.93
2019-03-21T03:26:43.837Z,67.77
2019-03-21T03:29:13.264Z,69.50
2019-03-21T03:31:42.718Z,66.33
2019-03-21T03:34:12.135Z,65.57
2019-03-21T03:36:41.640Z,71.90
2019-03-21T03:39:11.082Z,60.90
2019-03-21T03:41:40.578Z,68.53
2019-03-21T03:44:10.107Z,78.20
2019-03-21T03:46:39.529Z,64.60
2019-03-21T03:49:08.964Z,63.50
2019-03-21T03:51:38.404Z,70.83
2019-03-21T03:54:07.862Z,66.10
2019-03-21T03:56:37.360Z,63.00
2019-03-21T03:59:06.833Z,66.17
2019-03-21T04:01:36.250Z,59.30
2019-03-21T04:04:05.852Z,65.27
2019-03-21T04:06:35.444Z,67.43
2019-03-21T04:09:06.060Z,72.77
2019-03-21T04:11:36.136Z,65.33
2019-03-21T04:14:05.584Z,68.23
2019-03-21T04:16:35.017Z,67.77
2019-03-21T04:19:04.463Z,66.90
2019-03-21T04:21:33.888Z,66.47
2019-03-21T04:24:03.313Z,70.30
2019-03-21T04:26:32.813Z,62.27
2019-03-21T04:29:02.329Z,68.00
2019-03-21T04:31:33.392Z,66.17
2019-03-21T04:34:03.479Z,64.33
2019-03-21T04:36:32.963Z,66.93
2019-03-21T04:39:02.368Z,67.57
2019-03-21T04:41:33.068Z,65.13
2019-03-21T04:44:02.500Z,68.47
2019-03-21T04:46:31.917Z,62.07
2019-03-21T04:49:01.531Z,62.50
2019-03-21T04:51:31.371Z,67.07
2019-03-21T04:54:01.268Z,56.17
2019-03-21T04:56:30.762Z,64.13
2019-03-21T04:59:00.204Z,60.50
2019-03-21T05:01:29.734Z,74.33
2019-03-21T05:04:00.926Z,64.43
2019-03-21T05:06:32.811Z,59.73
2019-03-21T05:09:01.467Z,66.57
2019-03-21T05:11:32.073Z,54.90
2019-03-21T05:14:01.505Z,50.00
2019-03-21T05:16:31.231Z,62.40
2019-03-21T05:19:00.738Z,55.07
2019-03-21T05:21:30.169Z,45.23
2019-03-21T05:23:59.619Z,44.07
2019-03-21T05:26:29.055Z,36.83
2019-03-21T05:28:58.496Z,36.13
2019-03-21T05:31:29.411Z,32.33
2019-03-21T05:33:58.832Z,34.57
2019-03-21T05:36:28.284Z,31.37
2019-03-21T05:38:57.735Z,35.73
2019-03-21T05:41:30.318Z,36.27
2019-03-21T05:44:04.807Z,38.97
2019-03-21T05:46:34.231Z,39.40
2019-03-21T05:49:03.662Z,42.60
2019-03-21T05:51:33.398Z,43.77
2019-03-21T05:54:02.841Z,42.43
2019-03-21T05:56:32.321Z,45.70
2019-03-21T05:59:01.749Z,44.80
2019-03-21T06:01:31.186Z,46.20
2019-03-21T06:04:00.599Z,44.10
2019-03-21T06:06:38.425Z,44.40
2019-03-21T06:09:08.552Z,42.47
2019-03-21T06:11:39.655Z,49.13
2019-03-21T06:14:09.188Z,49.20
2019-03-21T06:16:38.616Z,45.93
2019-03-21T06:19:10.064Z,47.17
2019-03-21T06:21:58.485Z,50.83
2019-03-21T06:24:34.748Z,55.30
2019-03-21T06:27:23.164Z,49.57
2019-03-21T06:29:52.589Z,48.10
2019-03-21T06:32:22.013Z,51.23
2019-03-21T06:34:51.439Z,50.73
2019-03-21T06:37:20.863Z,57.73
2019-03-21T06:39:50.317Z,51.80
2019-03-21T06:42:19.732Z,53.83
2019-03-21T06:44:49.171Z,55.77
2019-03-21T06:47:18.612Z,48.67
2019-03-21T06:49:48.036Z,52.20
2019-03-21T06:52:17.492Z,47.30
2019-03-21T06:54:47.002Z,45.97
2019-03-21T06:57:16.449Z,56.17
2019-03-21T06:59:45.869Z,47.30
2019-03-21T07:02:16.771Z,55.80
2019-03-21T07:04:46.185Z,52.20
2019-03-21T07:07:15.725Z,50.40
2019-03-21T07:09:45.471Z,52.07
2019-03-21T07:12:14.891Z,54.23
2019-03-21T07:14:44.344Z,48.90
2019-03-21T07:17:13.760Z,52.57
2019-03-21T07:19:43.269Z,56.80
2019-03-21T07:22:12.800Z,47.43
2019-03-21T07:24:42.248Z,49.97
2019-03-21T07:27:11.655Z,49.23
2019-03-21T07:29:41.112Z,49.07
2019-03-21T07:32:10.829Z,45.30
2019-03-21T07:34:40.263Z,46.67
2019-03-21T07:37:09.689Z,47.10
2019-03-21T07:39:39.467Z,49.40
2019-03-21T07:42:08.884Z,44.27
2019-03-21T07:44:38.339Z,46.10
2019-03-21T07:47:13.065Z,43.77
2019-03-21T07:49:40.205Z,44.30
2019-03-21T07:52:09.669Z,45.07
2019-03-21T07:54:40.180Z,46.93
2019-03-21T07:57:09.631Z,54.33
2019-03-21T07:59:39.077Z,45.00
2019-03-21T08:02:08.535Z,42.30
2019-03-21T08:04:37.943Z,41.80
2019-03-21T08:07:07.664Z,42.00
2019-03-21T08:09:37.156Z,47.33
2019-03-21T08:12:06.823Z,42.47
2019-03-21T08:14:36.348Z,40.30
2019-03-21T08:17:05.771Z,40.07
2019-03-21T08:19:41.688Z,36.50
2019-03-21T08:22:11.115Z,43.63
2019-03-21T08:24:40.554Z,41.80
2019-03-21T08:27:10.004Z,44.43
2019-03-21T08:29:39.424Z,44.83
2019-03-21T08:32:09.168Z,34.23
2019-03-21T08:34:38.602Z,35.40
2019-03-21T08:37:08.038Z,31.33
2019-03-21T08:39:37.490Z,32.73
2019-03-21T08:42:07.177Z,28.47
2019-03-21T08:44:36.608Z,29.57
2019-03-21T08:47:06.049Z,31.50
2019-03-21T08:49:35.483Z,27.10
2019-03-21T08:52:04.935Z,25.60
2019-03-21T08:54:35.095Z,28.30
2019-03-21T08:57:04.577Z,29.73
2019-03-21T08:59:33.997Z,34.27
2019-03-21T09:02:03.515Z,28.57
2019-03-21T09:04:32.948Z,45.97
2019-03-21T09:07:02.389Z,31.60
2019-03-21T09:09:31.823Z,34.70
2019-03-21T09:12:01.281Z,32.53
2019-03-21T09:14:30.699Z,35.33
2019-03-21T09:17:00.138Z,31.83
2019-03-21T09:19:29.631Z,33.37
2019-03-21T09:21:59.071Z,34.40
2019-03-21T09:24:28.527Z,38.10
2019-03-21T09:26:57.968Z,36.20
2019-03-21T09:29:27.427Z,34.10
2019-03-21T09:31:57.104Z,27.97
2019-03-21T09:34:26.841Z,26.67
2019-03-21T09:36:56.599Z,25.63
2019-03-21T09:39:31.768Z,32.60
2019-03-21T09:42:01.201Z,29.30
2019-03-21T09:44:30.683Z,23.87
2019-03-21T09:47:00.131Z,27.43
2019-03-21T09:49:29.571Z,24.23
2019-03-21T09:52:00.079Z,25.53
2019-03-21T09:54:29.509Z,29.00
2019-03-21T09:56:58.939Z,28.40
2019-03-21T09:59:28.372Z,27.60
2019-03-21T10:01:57.820Z,25.70
2019-03-21T10:04:27.284Z,26.37
2019-03-21T10:06:57.032Z,25.90
2019-03-21T10:09:26.488Z,25.87
2019-03-21T10:11:55.899Z,25.43
2019-03-21T10:14:25.338Z,27.33
2019-03-21T10:16:54.767Z,27.37
2019-03-21T10:19:24.284Z,25.53
2019-03-21T10:21:53.712Z,28.50
2019-03-21T10:24:23.198Z,27.97
2019-03-21T10:26:52.633Z,38.43
2019-03-21T10:29:22.088Z,27.63
2019-03-21T10:31:52.591Z,31.20
2019-03-21T10:34:22.040Z,33.30
2019-03-21T10:36:51.478Z,25.77
2019-03-21T10:39:21.897Z,30.13
2019-03-21T10:41:51.411Z,32.13
2019-03-21T10:44:21.294Z,30.40
2019-03-21T10:46:51.639Z,30.23
2019-03-21T10:49:21.841Z,31.70
2019-03-21T10:51:55.302Z,30.87
2019-03-21T10:54:23.769Z,31.30
2019-03-21T10:56:53.747Z,26.70
2019-03-21T10:59:24.204Z,31.10
2019-03-21T11:02:07.604Z,28.67
2019-03-21T11:04:37.956Z,31.00
2019-03-21T11:07:07.452Z,34.50
2019-03-21T11:09:36.831Z,29.77
2019-03-21T11:12:06.919Z,31.33
2019-03-21T11:14:36.425Z,35.40
2019-03-21T11:17:05.865Z,30.93
2019-03-21T11:19:35.289Z,30.40
2019-03-21T11:22:06.499Z,33.23
2019-03-21T11:24:35.851Z,29.37
2019-03-21T11:27:06.382Z,29.60
2019-03-21T11:29:35.809Z,29.40
2019-03-21T11:32:05.224Z,29.50
2019-03-21T11:34:34.672Z,32.37
2019-03-21T11:37:05.059Z,32.60
2019-03-21T11:39:34.452Z,27.83
2019-03-21T11:42:03.836Z,32.03
2019-03-21T11:44:33.296Z,27.70
2019-03-21T11:47:02.654Z,30.07
2019-03-21T11:49:32.828Z,28.07
2019-03-21T11:52:03.296Z,33.43
2019-03-21T11:54:34.765Z,27.60
2019-03-21T11:57:05.028Z,29.00
2019-03-21T11:59:50.431Z,36.00
2019-03-21T12:02:07.307Z,32.50
2019-03-21T12:04:37.520Z,31.50
2019-03-21T12:07:07.693Z,28.10
2019-03-21T12:09:38.254Z,31.80
2019-03-21T12:12:08.416Z,32.90
2019-03-21T12:14:38.596Z,32.50
2019-03-21T12:17:08.767Z,28.00
2019-03-21T12:19:38.986Z,30.83
2019-03-21T12:22:09.152Z,29.07
2019-03-21T12:24:39.338Z,27.77
2019-03-21T12:27:08.823Z,29.07
2019-03-21T12:29:38.527Z,28.43
2019-03-21T12:32:07.955Z,27.30
2019-03-21T12:34:37.328Z,25.73
2019-03-21T12:37:07.691Z,21.57
2019-03-21T12:39:37.047Z,22.20
2019-03-21T12:42:06.436Z,20.87
2019-03-21T12:44:35.819Z,29.40
2019-03-21T12:47:05.266Z,24.70
2019-03-21T12:49:34.643Z,21.57
2019-03-21T12:52:04.128Z,20.03
2019-03-21T12:54:33.537Z,20.17
2019-03-21T12:57:02.898Z,19.97
2019-03-21T12:59:32.276Z,21.60
2019-03-21T13:02:01.637Z,20.13
2019-03-21T13:04:31.011Z,17.70
2019-03-21T13:07:00.397Z,19.83
2019-03-21T13:09:30.072Z,21.80
2019-03-21T13:11:59.435Z,24.70
2019-03-21T13:14:28.972Z,20.80
2019-03-21T13:16:58.343Z,22.30
2019-03-21T13:19:27.732Z,21.20
2019-03-21T13:21:57.179Z,28.00
2019-03-21T13:24:26.568Z,20.43
2019-03-21T13:26:55.944Z,19.10
2019-03-21T13:29:25.347Z,22.10
2019-03-21T13:31:54.711Z,22.87
2019-03-21T13:34:24.067Z,20.47
2019-03-21T13:36:53.464Z,20.20
2019-03-21T13:39:22.841Z,23.83
2019-03-21T13:41:52.240Z,19.93
2019-03-21T13:44:21.601Z,19.27
2019-03-21T13:46:50.958Z,20.87
2019-03-21T13:49:20.327Z,24.47
2019-03-21T13:51:50.685Z,20.37
2019-03-21T13:54:20.056Z,28.43
2019-03-21T13:56:49.436Z,21.10
2019-03-21T13:59:19.800Z,22.40
2019-03-21T14:01:49.179Z,21.87
2019-03-21T14:04:18.573Z,20.03
2019-03-21T14:06:47.943Z,20.63
2019-03-21T14:09:17.325Z,25.73
2019-03-21T14:11:46.725Z,20.10
2019-03-21T14:14:16.090Z,18.80
2019-03-21T14:16:45.491Z,21.07
2019-03-21T14:19:14.914Z,26.00
2019-03-21T14:21:44.278Z,28.63
2019-03-21T14:24:13.651Z,24.83
2019-03-21T14:26:43.032Z,22.27
2019-03-21T14:29:13.094Z,20.43
2019-03-21T14:31:42.664Z,21.73
2019-03-21T14:34:12.059Z,22.37
2019-03-21T14:36:41.441Z,25.17
2019-03-21T14:39:10.826Z,23.80
2019-03-21T14:41:40.192Z,24.10
2019-03-21T14:44:09.602Z,17.90
2019-03-21T14:46:38.991Z,23.73
2019-03-21T14:49:08.453Z,21.97
2019-03-21T14:51:37.828Z,25.20
2019-03-21T14:54:07.237Z,21.33
2019-03-21T14:56:36.967Z,25.03
2019-03-21T14:59:06.393Z,34.03
2019-03-21T15:01:35.758Z,27.40
2019-03-21T15:04:05.193Z,23.07
2019-03-21T15:06:34.567Z,25.43
2019-03-21T15:09:05.484Z,25.70
2019-03-21T15:11:35.244Z,27.27
2019-03-21T15:14:04.608Z,28.63
2019-03-21T15:16:34.066Z,25.07
2019-03-21T15:19:03.801Z,25.47
2019-03-21T15:21:33.183Z,31.37
2019-03-21T15:24:02.553Z,23.23
2019-03-21T15:26:32.031Z,29.20
2019-03-21T15:29:01.397Z,25.70
2019-03-21T15:31:30.772Z,22.70
2019-03-21T15:34:00.143Z,23.10
2019-03-21T15:36:29.542Z,22.80
2019-03-21T15:38:58.925Z,22.20
2019-03-21T15:41:28.310Z,26.90
2019-03-21T15:43:57.679Z,23.77
2019-03-21T15:46:27.068Z,22.30
2019-03-21T15:48:56.459Z,28.20
2019-03-21T15:51:25.895Z,28.57
2019-03-21T15:53:56.743Z,31.20
2019-03-21T15:56:26.276Z,25.17
2019-03-21T15:58:55.647Z,23.70
2019-03-21T16:01:25.023Z,22.60
2019-03-21T16:03:54.416Z,25.03
2019-03-21T16:06:23.788Z,24.03
2019-03-21T16:08:53.199Z,20.90
2019-03-21T16:11:22.573Z,28.27
2019-03-21T16:13:51.952Z,21.27
2019-03-21T16:16:21.332Z,24.60
2019-03-21T16:18:50.708Z,27.93
2019-03-21T16:21:20.075Z,22.00
2019-03-21T16:23:49.456Z,21.93
2019-03-21T16:26:19.180Z,26.43
2019-03-21T16:28:48.868Z,20.43
2019-03-21T16:31:18.243Z,22.67
2019-03-21T16:33:47.626Z,21.83
2019-03-21T16:36:17.020Z,21.40
2019-03-21T16:38:46.428Z,25.40
2019-03-21T16:41:15.831Z,26.10
2019-03-21T16:44:09.310Z,40.23
2019-03-21T16:46:38.738Z,24.40
2019-03-21T16:49:08.379Z,27.50
2019-03-21T16:51:37.870Z,25.50
2019-03-21T16:54:16.419Z,31.03
2019-03-21T16:56:38.737Z,24.27
2019-03-21T16:59:08.706Z,28.03
2019-03-21T17:01:38.160Z,25.03
2019-03-21T17:04:11.408Z,20.03
2019-03-21T17:06:41.875Z,28.40
2019-03-21T17:09:11.330Z,23.20
2019-03-21T17:11:41.242Z,25.87
2019-03-21T17:14:10.901Z,27.40
2019-03-21T17:16:40.475Z,23.00
2019-03-21T17:19:09.971Z,20.87
2019-03-21T17:21:39.492Z,25.80
2019-03-21T17:24:11.108Z,22.43
2019-03-21T17:26:40.953Z,23.20
2019-03-21T17:29:10.556Z,20.03
2019-03-21T17:31:40.089Z,23.97
2019-03-21T17:34:10.079Z,26.30
2019-03-21T17:36:39.564Z,22.17
2019-03-21T17:39:09.473Z,20.90
2019-03-21T17:41:38.909Z,25.23
2019-03-21T17:44:10.025Z,26.53
2019-03-21T17:46:39.535Z,24.73
2019-03-21T17:49:11.196Z,22.33
2019-03-21T17:51:40.655Z,20.90
2019-03-21T17:54:10.620Z,21.87
2019-03-21T17:56:40.173Z,28.30
2019-03-21T17:59:09.986Z,22.60
2019-03-21T18:01:39.452Z,27.10
2019-03-21T18:04:10.241Z,62.37
2019-03-21T18:06:39.743Z,28.20
2019-03-21T18:09:09.517Z,19.50
2019-03-21T18:11:38.953Z,24.03
2019-03-21T18:14:08.593Z,22.00
2019-03-21T18:16:38.019Z,25.10
2019-03-21T18:21:56.207Z,21.97
2019-03-21T18:24:25.648Z,25.57
2019-03-21T18:26:55.081Z,29.93
2019-03-21T18:29:24.521Z,23.63
2019-03-21T18:31:53.942Z,24.63
2019-03-21T18:34:23.428Z,26.20
2019-03-21T18:36:52.849Z,28.80
2019-03-21T18:39:22.293Z,22.30
2019-03-21T18:41:51.720Z,28.13
2019-03-21T18:44:21.152Z,20.53
2019-03-21T18:46:50.833Z,23.50
2019-03-21T18:49:20.278Z,26.80
2019-03-21T18:51:49.698Z,27.40
2019-03-21T18:54:19.186Z,25.67
2019-03-21T18:56:48.647Z,30.33
2019-03-21T18:59:18.058Z,29.20
2019-03-21T19:01:57.996Z,24.80
2019-03-21T19:04:18.789Z,28.53
2019-03-21T19:06:48.215Z,28.47
2019-03-21T19:09:17.989Z,27.90
2019-03-21T19:11:47.386Z,27.80
2019-03-21T19:14:16.833Z,22.73
2019-03-21T19:16:46.324Z,24.43
2019-03-21T19:19:15.760Z,26.30
2019-03-21T19:21:45.172Z,29.30
2019-03-21T19:24:14.750Z,29.80
2019-03-21T19:26:44.191Z,30.87
2019-03-21T19:29:15.072Z,30.60
2019-03-21T19:31:44.704Z,30.53
2019-03-21T19:34:14.168Z,31.90
2019-03-21T19:36:43.610Z,31.67
2019-03-21T19:39:13.128Z,32.30
2019-03-21T19:41:42.518Z,30.77
2019-03-21T19:44:12.189Z,29.20
2019-03-21T19:46:41.668Z,33.70
2019-03-21T19:49:11.067Z,33.77
2019-03-21T19:51:40.472Z,31.27
2019-03-21T19:54:10.264Z,35.60
2019-03-21T19:56:39.693Z,34.13
2019-03-21T19:59:09.153Z,30.60
2019-03-21T20:01:38.610Z,33.90
2019-03-21T20:04:08.024Z,35.13
2019-03-21T20:06:37.819Z,35.70
2019-03-21T20:09:07.530Z,35.07
2019-03-21T20:11:37.101Z,33.23
2019-03-21T20:14:06.542Z,35.70
2019-03-21T20:16:35.960Z,32.77
2019-03-21T20:19:05.716Z,34.63
2019-03-21T20:21:47.139Z,33.03
2019-03-21T20:24:06.583Z,44.17
2019-03-21T20:26:36.605Z,33.57
2019-03-21T20:29:06.117Z,31.17
2019-03-21T20:31:35.529Z,36.43
2019-03-21T20:34:04.985Z,36.10
2019-03-21T20:36:34.534Z,32.60
2019-03-21T20:39:06.652Z,36.27
2019-03-21T20:42:18.781Z,36.33
2019-03-21T20:44:48.213Z,36.53
2019-03-21T20:47:17.689Z,36.97
2019-03-21T20:49:47.191Z,40.57
2019-03-21T20:52:16.580Z,37.83
2019-03-21T20:54:47.048Z,42.20
2019-03-21T20:57:16.448Z,39.87
2019-03-21T20:59:45.877Z,36.43
2019-03-21T21:02:16.271Z,39.80
2019-03-21T21:04:45.788Z,34.57
2019-03-21T21:07:16.176Z,39.50
2019-03-21T21:09:45.655Z,39.80
2019-03-21T21:12:15.148Z,38.17
2019-03-21T21:14:44.568Z,43.53
2019-03-21T21:17:13.993Z,40.90
2019-03-21T21:19:43.425Z,42.30
2019-03-21T21:22:12.868Z,39.33
2019-03-21T21:24:42.317Z,39.00
2019-03-21T21:27:11.729Z,48.53
2019-03-21T21:29:43.068Z,37.73
2019-03-21T21:32:12.637Z,39.10
2019-03-21T21:34:42.227Z,44.60
2019-03-21T21:37:11.645Z,44.30
2019-03-21T21:39:41.072Z,40.90
2019-03-21T21:42:10.509Z,43.17
2019-03-21T21:44:39.944Z,42.70
2019-03-21T21:47:09.388Z,40.53
2019-03-21T21:49:38.824Z,43.53
2019-03-21T21:52:08.267Z,44.27
2019-03-21T21:54:37.701Z,43.57
2019-03-21T21:57:07.140Z,45.00
2019-03-21T21:59:36.575Z,41.77
2019-03-21T22:02:06.035Z,44.77
2019-03-21T22:04:35.520Z,44.17
2019-03-21T22:07:04.970Z,45.10
2019-03-21T22:09:35.388Z,50.90
2019-03-21T22:12:05.113Z,45.03
2019-03-21T22:14:34.529Z,47.93
2019-03-21T22:17:03.941Z,45.83
2019-03-21T22:19:33.429Z,42.53
2019-03-21T22:22:02.872Z,57.00
2019-03-21T22:24:32.376Z,46.33
2019-03-21T22:27:01.796Z,46.97
2019-03-21T22:29:31.235Z,42.70
2019-03-21T22:32:00.651Z,50.23
2019-03-21T22:34:30.104Z,50.10
2019-03-21T22:36:59.521Z,43.20
2019-03-21T22:39:28.944Z,47.57
2019-03-21T22:41:58.364Z,46.80
2019-03-21T22:44:27.811Z,47.70
2019-03-21T22:46:57.304Z,44.23
2019-03-21T22:49:26.768Z,45.63
2019-03-21T22:51:56.171Z,47.40
2019-03-21T22:54:25.608Z,52.83
2019-03-21T22:56:55.049Z,52.80
2019-03-21T22:59:24.496Z,50.23
2019-03-21T23:01:53.988Z,48.90
2019-03-21T23:04:23.467Z,47.70
2019-03-21T23:06:53.861Z,52.57
2019-03-21T23:09:23.338Z,48.60
2019-03-21T23:11:52.784Z,46.17
2019-03-21T23:14:22.220Z,46.33
2019-03-21T23:16:51.648Z,41.43
2019-03-21T23:19:21.080Z,44.37
2019-03-21T23:21:50.521Z,50.27
2019-03-21T23:24:19.941Z,51.30
2019-03-21T23:26:53.174Z,42.23
2019-03-21T23:29:20.511Z,53.60
2019-03-21T23:31:50.204Z,47.03
2019-03-21T23:34:19.627Z,44.43
2019-03-21T23:36:50.128Z,42.07
2019-03-21T23:39:19.543Z,43.77
2019-03-21T23:41:49.029Z,39.80
2019-03-21T23:44:18.481Z,43.30
2019-03-21T23:46:47.901Z,40.63
2019-03-21T23:49:17.319Z,40.43
2019-03-21T23:51:46.769Z,40.77
2019-03-21T23:54:16.202Z,39.80
2019-03-21T23:56:45.665Z,44.43
2019-03-21T23:59:15.089Z,41.97
